sensor_id;sensor_type;location;lat;lon;timestamp;P1;durP1;ratioP1;P2;durP2;ratioP2
6223;SDS011;3145;42.726;23.342;2023-09-30T00:01:00;13.47;;;7.20;;
6223;SDS011;3145;42.726;23.342;2023-09-30T00:03:26;9.83;;;7.33;;
6223;SDS011;3145;42.726;23.342;2023-09-30T00:05:53;9.50;;;8.07;;
6223;SDS011;3145;42.726;23.342;2023-09-30T00:08:20;10.33;;;7.43;;
6223;SDS011;3145;42.726;23.342;2023-09-30T00:10:48;12.20;;;6.73;;
6223;SDS011;3145;42.726;23.342;2023-09-30T00:13:15;9.30;;;6.67;;
6223;SDS011;3145;42.726;23.342;2023-09-30T00:15:42;8.07;;;6.63;;
6223;SDS011;3145;42.726;23.342;2023-09-30T00:18:08;8.87;;;7.13;;
6223;SDS011;3145;42.726;23.342;2023-09-30T00:20:35;8.33;;;6.50;;
6223;SDS011;3145;42.726;23.342;2023-09-30T00:23:02;9.60;;;6.47;;
6223;SDS011;3145;42.726;23.342;2023-09-30T00:25:31;7.90;;;6.77;;
6223;SDS011;3145;42.726;23.342;2023-09-30T00:27:59;9.93;;;6.53;;
6223;SDS011;3145;42.726;23.342;2023-09-30T00:30:26;7.53;;;6.77;;
6223;SDS011;3145;42.726;23.342;2023-09-30T00:32:52;7.93;;;6.93;;
6223;SDS011;3145;42.726;23.342;2023-09-30T00:35:19;10.37;;;7.00;;
6223;SDS011;3145;42.726;23.342;2023-09-30T00:37:46;10.27;;;6.80;;
6223;SDS011;3145;42.726;23.342;2023-09-30T00:40:13;8.30;;;6.47;;
6223;SDS011;3145;42.726;23.342;2023-09-30T00:42:39;8.37;;;6.13;;
6223;SDS011;3145;42.726;23.342;2023-09-30T00:45:09;13.80;;;7.13;;
6223;SDS011;3145;42.726;23.342;2023-09-30T00:47:36;8.00;;;6.83;;
6223;SDS011;3145;42.726;23.342;2023-09-30T00:50:03;11.03;;;7.10;;
6223;SDS011;3145;42.726;23.342;2023-09-30T00:52:33;16.30;;;7.60;;
6223;SDS011;3145;42.726;23.342;2023-09-30T00:55:01;11.83;;;7.30;;
6223;SDS011;3145;42.726;23.342;2023-09-30T00:57:31;17.60;;;6.77;;
6223;SDS011;3145;42.726;23.342;2023-09-30T00:59:58;9.27;;;7.30;;
6223;SDS011;3145;42.726;23.342;2023-09-30T01:02:26;9.10;;;7.00;;
6223;SDS011;3145;42.726;23.342;2023-09-30T01:04:53;10.03;;;7.33;;
6223;SDS011;3145;42.726;23.342;2023-09-30T01:07:21;7.93;;;6.93;;
6223;SDS011;3145;42.726;23.342;2023-09-30T01:09:48;7.97;;;7.17;;
6223;SDS011;3145;42.726;23.342;2023-09-30T01:12:15;10.67;;;7.77;;
6223;SDS011;3145;42.726;23.342;2023-09-30T01:14:42;13.20;;;7.43;;
6223;SDS011;3145;42.726;23.342;2023-09-30T01:17:09;7.90;;;6.83;;
6223;SDS011;3145;42.726;23.342;2023-09-30T01:19:39;10.50;;;7.00;;
6223;SDS011;3145;42.726;23.342;2023-09-30T01:22:09;12.23;;;7.40;;
6223;SDS011;3145;42.726;23.342;2023-09-30T01:24:38;9.93;;;7.17;;
6223;SDS011;3145;42.726;23.342;2023-09-30T01:27:06;7.70;;;6.77;;
6223;SDS011;3145;42.726;23.342;2023-09-30T01:29:33;9.10;;;7.23;;
6223;SDS011;3145;42.726;23.342;2023-09-30T01:32:00;19.67;;;7.63;;
6223;SDS011;3145;42.726;23.342;2023-09-30T01:34:27;11.67;;;7.73;;
6223;SDS011;3145;42.726;23.342;2023-09-30T01:36:53;12.20;;;6.97;;
6223;SDS011;3145;42.726;23.342;2023-09-30T01:39:21;16.63;;;7.80;;
6223;SDS011;3145;42.726;23.342;2023-09-30T01:41:48;9.27;;;7.10;;
6223;SDS011;3145;42.726;23.342;2023-09-30T01:44:15;14.70;;;7.23;;
6223;SDS011;3145;42.726;23.342;2023-09-30T01:46:42;9.23;;;7.17;;
6223;SDS011;3145;42.726;23.342;2023-09-30T01:49:08;18.97;;;7.63;;
6223;SDS011;3145;42.726;23.342;2023-09-30T01:51:35;11.93;;;7.63;;
6223;SDS011;3145;42.726;23.342;2023-09-30T01:54:02;13.13;;;7.57;;
6223;SDS011;3145;42.726;23.342;2023-09-30T01:56:31;9.53;;;7.90;;
6223;SDS011;3145;42.726;23.342;2023-09-30T01:58:58;10.57;;;8.03;;
6223;SDS011;3145;42.726;23.342;2023-09-30T02:01:25;14.47;;;8.40;;
6223;SDS011;3145;42.726;23.342;2023-09-30T02:03:52;10.83;;;7.50;;
6223;SDS011;3145;42.726;23.342;2023-09-30T02:06:19;11.43;;;9.03;;
6223;SDS011;3145;42.726;23.342;2023-09-30T02:08:46;9.47;;;8.47;;
6223;SDS011;3145;42.726;23.342;2023-09-30T02:11:12;18.70;;;8.87;;
6223;SDS011;3145;42.726;23.342;2023-09-30T02:13:41;13.77;;;9.03;;
6223;SDS011;3145;42.726;23.342;2023-09-30T02:16:11;9.10;;;8.20;;
6223;SDS011;3145;42.726;23.342;2023-09-30T02:18:38;15.03;;;8.93;;
6223;SDS011;3145;42.726;23.342;2023-09-30T02:21:06;16.07;;;8.17;;
6223;SDS011;3145;42.726;23.342;2023-09-30T02:23:34;11.53;;;8.30;;
6223;SDS011;3145;42.726;23.342;2023-09-30T02:26:00;10.27;;;7.77;;
6223;SDS011;3145;42.726;23.342;2023-09-30T02:28:28;12.00;;;8.60;;
6223;SDS011;3145;42.726;23.342;2023-09-30T02:30:56;9.23;;;8.23;;
6223;SDS011;3145;42.726;23.342;2023-09-30T02:33:23;11.37;;;7.70;;
6223;SDS011;3145;42.726;23.342;2023-09-30T02:35:51;10.43;;;8.13;;
6223;SDS011;3145;42.726;23.342;2023-09-30T02:38:18;15.63;;;8.33;;
6223;SDS011;3145;42.726;23.342;2023-09-30T02:40:46;9.53;;;7.50;;
6223;SDS011;3145;42.726;23.342;2023-09-30T02:43:15;11.00;;;7.80;;
6223;SDS011;3145;42.726;23.342;2023-09-30T02:45:41;13.13;;;7.80;;
6223;SDS011;3145;42.726;23.342;2023-09-30T02:48:10;13.07;;;8.07;;
6223;SDS011;3145;42.726;23.342;2023-09-30T02:50:36;10.60;;;8.17;;
6223;SDS011;3145;42.726;23.342;2023-09-30T02:53:04;12.27;;;8.13;;
6223;SDS011;3145;42.726;23.342;2023-09-30T02:55:31;8.63;;;7.83;;
6223;SDS011;3145;42.726;23.342;2023-09-30T02:57:58;9.73;;;7.73;;
6223;SDS011;3145;42.726;23.342;2023-09-30T03:00:26;13.93;;;7.70;;
6223;SDS011;3145;42.726;23.342;2023-09-30T03:02:52;11.87;;;7.60;;
6223;SDS011;3145;42.726;23.342;2023-09-30T03:05:21;15.03;;;9.13;;
6223;SDS011;3145;42.726;23.342;2023-09-30T03:07:48;12.97;;;7.77;;
6223;SDS011;3145;42.726;23.342;2023-09-30T03:10:16;14.03;;;8.40;;
6223;SDS011;3145;42.726;23.342;2023-09-30T03:12:45;11.93;;;8.40;;
6223;SDS011;3145;42.726;23.342;2023-09-30T03:15:12;11.00;;;7.33;;
6223;SDS011;3145;42.726;23.342;2023-09-30T03:17:39;8.10;;;7.30;;
6223;SDS011;3145;42.726;23.342;2023-09-30T03:20:07;13.77;;;8.40;;
6223;SDS011;3145;42.726;23.342;2023-09-30T03:22:38;10.10;;;8.20;;
6223;SDS011;3145;42.726;23.342;2023-09-30T03:25:06;9.63;;;7.53;;
6223;SDS011;3145;42.726;23.342;2023-09-30T03:27:34;9.43;;;7.60;;
6223;SDS011;3145;42.726;23.342;2023-09-30T03:30:01;9.60;;;7.80;;
6223;SDS011;3145;42.726;23.342;2023-09-30T03:32:29;8.73;;;7.63;;
6223;SDS011;3145;42.726;23.342;2023-09-30T03:34:55;8.27;;;7.17;;
6223;SDS011;3145;42.726;23.342;2023-09-30T03:37:24;9.47;;;7.60;;
6223;SDS011;3145;42.726;23.342;2023-09-30T03:39:53;8.80;;;7.90;;
6223;SDS011;3145;42.726;23.342;2023-09-30T03:42:20;10.63;;;8.20;;
6223;SDS011;3145;42.726;23.342;2023-09-30T03:44:46;10.30;;;7.93;;
6223;SDS011;3145;42.726;23.342;2023-09-30T03:47:14;9.17;;;7.80;;
6223;SDS011;3145;42.726;23.342;2023-09-30T03:49:41;9.03;;;8.07;;
6223;SDS011;3145;42.726;23.342;2023-09-30T03:52:08;18.33;;;8.87;;
6223;SDS011;3145;42.726;23.342;2023-09-30T03:54:35;9.73;;;8.50;;
6223;SDS011;3145;42.726;23.342;2023-09-30T03:57:04;9.23;;;8.30;;
6223;SDS011;3145;42.726;23.342;2023-09-30T03:59:30;11.57;;;8.57;;
6223;SDS011;3145;42.726;23.342;2023-09-30T04:01:57;17.60;;;8.87;;
6223;SDS011;3145;42.726;23.342;2023-09-30T04:04:24;13.90;;;8.40;;
6223;SDS011;3145;42.726;23.342;2023-09-30T04:06:51;15.40;;;9.97;;
6223;SDS011;3145;42.726;23.342;2023-09-30T04:09:17;16.17;;;9.03;;
6223;SDS011;3145;42.726;23.342;2023-09-30T04:11:44;13.27;;;8.87;;
6223;SDS011;3145;42.726;23.342;2023-09-30T04:14:13;12.63;;;8.90;;
6223;SDS011;3145;42.726;23.342;2023-09-30T04:16:42;13.97;;;9.17;;
6223;SDS011;3145;42.726;23.342;2023-09-30T04:19:09;14.67;;;8.80;;
6223;SDS011;3145;42.726;23.342;2023-09-30T04:21:36;14.27;;;8.13;;
6223;SDS011;3145;42.726;23.342;2023-09-30T04:24:04;10.70;;;8.80;;
6223;SDS011;3145;42.726;23.342;2023-09-30T04:26:31;13.90;;;8.93;;
6223;SDS011;3145;42.726;23.342;2023-09-30T04:28:58;17.77;;;9.70;;
6223;SDS011;3145;42.726;23.342;2023-09-30T04:31:27;12.63;;;8.73;;
6223;SDS011;3145;42.726;23.342;2023-09-30T04:33:54;17.83;;;9.40;;
6223;SDS011;3145;42.726;23.342;2023-09-30T04:36:23;13.10;;;9.20;;
6223;SDS011;3145;42.726;23.342;2023-09-30T04:38:49;12.20;;;8.30;;
6223;SDS011;3145;42.726;23.342;2023-09-30T04:41:16;14.60;;;8.60;;
6223;SDS011;3145;42.726;23.342;2023-09-30T04:43:44;12.10;;;8.20;;
6223;SDS011;3145;42.726;23.342;2023-09-30T04:46:11;15.40;;;8.10;;
6223;SDS011;3145;42.726;23.342;2023-09-30T04:48:40;13.70;;;8.17;;
6223;SDS011;3145;42.726;23.342;2023-09-30T04:51:07;15.73;;;8.80;;
6223;SDS011;3145;42.726;23.342;2023-09-30T04:53:34;11.20;;;7.93;;
6223;SDS011;3145;42.726;23.342;2023-09-30T04:56:00;11.90;;;7.97;;
6223;SDS011;3145;42.726;23.342;2023-09-30T04:58:27;16.40;;;8.27;;
6223;SDS011;3145;42.726;23.342;2023-09-30T05:00:54;9.00;;;8.20;;
6223;SDS011;3145;42.726;23.342;2023-09-30T05:03:21;13.70;;;7.30;;
6223;SDS011;3145;42.726;23.342;2023-09-30T05:05:50;9.30;;;7.00;;
6223;SDS011;3145;42.726;23.342;2023-09-30T05:08:20;12.83;;;7.83;;
6223;SDS011;3145;42.726;23.342;2023-09-30T05:10:47;11.97;;;7.67;;
6223;SDS011;3145;42.726;23.342;2023-09-30T05:13:14;11.20;;;7.50;;
6223;SDS011;3145;42.726;23.342;2023-09-30T05:15:41;11.73;;;7.40;;
6223;SDS011;3145;42.726;23.342;2023-09-30T05:18:08;11.07;;;7.00;;
6223;SDS011;3145;42.726;23.342;2023-09-30T05:20:34;12.97;;;7.93;;
6223;SDS011;3145;42.726;23.342;2023-09-30T05:23:05;16.10;;;7.33;;
6223;SDS011;3145;42.726;23.342;2023-09-30T05:25:33;9.03;;;7.60;;
6223;SDS011;3145;42.726;23.342;2023-09-30T05:28:00;9.13;;;7.40;;
6223;SDS011;3145;42.726;23.342;2023-09-30T05:30:26;10.13;;;7.37;;
6223;SDS011;3145;42.726;23.342;2023-09-30T05:32:53;8.53;;;7.07;;
6223;SDS011;3145;42.726;23.342;2023-09-30T05:35:20;11.67;;;7.93;;
6223;SDS011;3145;42.726;23.342;2023-09-30T05:37:47;10.93;;;7.80;;
6223;SDS011;3145;42.726;23.342;2023-09-30T05:40:19;13.33;;;7.77;;
6223;SDS011;3145;42.726;23.342;2023-09-30T05:42:50;16.67;;;7.80;;
6223;SDS011;3145;42.726;23.342;2023-09-30T05:45:18;18.93;;;7.23;;
6223;SDS011;3145;42.726;23.342;2023-09-30T05:47:45;15.83;;;7.60;;
6223;SDS011;3145;42.726;23.342;2023-09-30T05:50:11;16.73;;;8.13;;
6223;SDS011;3145;42.726;23.342;2023-09-30T05:52:41;15.33;;;8.33;;
6223;SDS011;3145;42.726;23.342;2023-09-30T05:55:08;18.37;;;7.13;;
6223;SDS011;3145;42.726;23.342;2023-09-30T05:57:37;9.60;;;7.10;;
6223;SDS011;3145;42.726;23.342;2023-09-30T06:00:04;12.47;;;7.87;;
6223;SDS011;3145;42.726;23.342;2023-09-30T06:02:45;13.33;;;7.53;;
6223;SDS011;3145;42.726;23.342;2023-09-30T06:05:13;10.97;;;7.37;;
6223;SDS011;3145;42.726;23.342;2023-09-30T06:07:41;17.87;;;7.63;;
6223;SDS011;3145;42.726;23.342;2023-09-30T06:10:10;15.40;;;7.63;;
6223;SDS011;3145;42.726;23.342;2023-09-30T06:12:38;10.60;;;6.43;;
6223;SDS011;3145;42.726;23.342;2023-09-30T06:15:07;13.03;;;6.47;;
6223;SDS011;3145;42.726;23.342;2023-09-30T06:17:35;7.13;;;6.43;;
6223;SDS011;3145;42.726;23.342;2023-09-30T06:20:03;11.93;;;6.70;;
6223;SDS011;3145;42.726;23.342;2023-09-30T06:22:34;19.80;;;7.97;;
6223;SDS011;3145;42.726;23.342;2023-09-30T06:25:01;20.17;;;6.70;;
6223;SDS011;3145;42.726;23.342;2023-09-30T06:27:29;13.73;;;6.70;;
6223;SDS011;3145;42.726;23.342;2023-09-30T06:29:57;8.60;;;6.77;;
6223;SDS011;3145;42.726;23.342;2023-09-30T06:32:23;10.07;;;6.63;;
6223;SDS011;3145;42.726;23.342;2023-09-30T06:34:50;17.37;;;8.33;;
6223;SDS011;3145;42.726;23.342;2023-09-30T06:37:18;14.30;;;7.67;;
6223;SDS011;3145;42.726;23.342;2023-09-30T06:39:45;10.35;;;7.25;;
6223;SDS011;3145;42.726;23.342;2023-09-30T06:42:13;13.88;;;7.35;;
6223;SDS011;3145;42.726;23.342;2023-09-30T06:44:39;15.43;;;7.50;;
6223;SDS011;3145;42.726;23.342;2023-09-30T06:47:07;12.05;;;7.65;;
6223;SDS011;3145;42.726;23.342;2023-09-30T06:49:37;10.40;;;7.80;;
6223;SDS011;3145;42.726;23.342;2023-09-30T06:52:04;13.17;;;7.53;;
6223;SDS011;3145;42.726;23.342;2023-09-30T06:54:30;16.08;;;7.72;;
6223;SDS011;3145;42.726;23.342;2023-09-30T06:56:57;18.20;;;8.23;;
6223;SDS011;3145;42.726;23.342;2023-09-30T06:59:24;14.05;;;7.65;;
6223;SDS011;3145;42.726;23.342;2023-09-30T07:01:51;12.80;;;7.38;;
6223;SDS011;3145;42.726;23.342;2023-09-30T07:04:21;8.35;;;7.30;;
6223;SDS011;3145;42.726;23.342;2023-09-30T07:06:47;15.88;;;7.03;;
6223;SDS011;3145;42.726;23.342;2023-09-30T07:09:14;13.18;;;7.53;;
6223;SDS011;3145;42.726;23.342;2023-09-30T07:11:42;15.27;;;7.65;;
6223;SDS011;3145;42.726;23.342;2023-09-30T07:14:09;15.60;;;6.88;;
6223;SDS011;3145;42.726;23.342;2023-09-30T07:16:36;16.00;;;6.53;;
6223;SDS011;3145;42.726;23.342;2023-09-30T07:19:03;15.30;;;7.13;;
6223;SDS011;3145;42.726;23.342;2023-09-30T07:21:31;24.40;;;7.30;;
6223;SDS011;3145;42.726;23.342;2023-09-30T07:23:58;11.77;;;6.28;;
6223;SDS011;3145;42.726;23.342;2023-09-30T07:26:24;15.30;;;6.60;;
6223;SDS011;3145;42.726;23.342;2023-09-30T07:28:53;15.50;;;7.45;;
6223;SDS011;3145;42.726;23.342;2023-09-30T07:31:21;9.65;;;7.60;;
6223;SDS011;3145;42.726;23.342;2023-09-30T07:33:49;16.15;;;6.40;;
6223;SDS011;3145;42.726;23.342;2023-09-30T07:36:15;24.33;;;6.47;;
6223;SDS011;3145;42.726;23.342;2023-09-30T07:38:44;9.45;;;6.90;;
6223;SDS011;3145;42.726;23.342;2023-09-30T07:41:12;8.60;;;5.68;;
6223;SDS011;3145;42.726;23.342;2023-09-30T07:43:39;16.15;;;6.95;;
6223;SDS011;3145;42.726;23.342;2023-09-30T07:46:05;12.90;;;6.22;;
6223;SDS011;3145;42.726;23.342;2023-09-30T07:48:33;8.32;;;5.97;;
6223;SDS011;3145;42.726;23.342;2023-09-30T07:51:00;7.80;;;5.35;;
6223;SDS011;3145;42.726;23.342;2023-09-30T07:53:27;12.55;;;5.97;;
6223;SDS011;3145;42.726;23.342;2023-09-30T07:55:55;10.93;;;5.30;;
6223;SDS011;3145;42.726;23.342;2023-09-30T07:58:22;11.27;;;5.35;;
6223;SDS011;3145;42.726;23.342;2023-09-30T08:00:48;15.15;;;6.00;;
6223;SDS011;3145;42.726;23.342;2023-09-30T08:03:15;30.58;;;6.95;;
6223;SDS011;3145;42.726;23.342;2023-09-30T08:05:42;15.10;;;5.13;;
6223;SDS011;3145;42.726;23.342;2023-09-30T08:08:09;18.08;;;5.97;;
6223;SDS011;3145;42.726;23.342;2023-09-30T08:10:36;17.98;;;4.90;;
6223;SDS011;3145;42.726;23.342;2023-09-30T08:13:04;26.85;;;6.35;;
6223;SDS011;3145;42.726;23.342;2023-09-30T08:15:31;16.92;;;5.93;;
6223;SDS011;3145;42.726;23.342;2023-09-30T08:17:58;16.60;;;5.18;;
6223;SDS011;3145;42.726;23.342;2023-09-30T08:20:25;11.60;;;6.13;;
6223;SDS011;3145;42.726;23.342;2023-09-30T08:22:51;11.40;;;6.60;;
6223;SDS011;3145;42.726;23.342;2023-09-30T08:25:18;6.55;;;5.85;;
6223;SDS011;3145;42.726;23.342;2023-09-30T08:27:45;9.85;;;6.15;;
6223;SDS011;3145;42.726;23.342;2023-09-30T08:30:16;7.40;;;6.53;;
6223;SDS011;3145;42.726;23.342;2023-09-30T08:32:42;7.30;;;6.50;;
6223;SDS011;3145;42.726;23.342;2023-09-30T08:35:09;10.50;;;6.22;;
6223;SDS011;3145;42.726;23.342;2023-09-30T08:37:36;18.05;;;6.50;;
6223;SDS011;3145;42.726;23.342;2023-09-30T08:40:03;9.35;;;6.18;;
6223;SDS011;3145;42.726;23.342;2023-09-30T08:42:30;12.38;;;5.90;;
6223;SDS011;3145;42.726;23.342;2023-09-30T08:44:59;10.82;;;6.18;;
6223;SDS011;3145;42.726;23.342;2023-09-30T08:47:27;7.90;;;6.40;;
6223;SDS011;3145;42.726;23.342;2023-09-30T08:49:54;13.48;;;7.25;;
6223;SDS011;3145;42.726;23.342;2023-09-30T08:52:30;11.73;;;7.35;;
6223;SDS011;3145;42.726;23.342;2023-09-30T08:54:58;11.15;;;6.75;;
6223;SDS011;3145;42.726;23.342;2023-09-30T08:57:25;154.63;;;21.13;;
6223;SDS011;3145;42.726;23.342;2023-09-30T08:59:53;12.52;;;7.60;;
6223;SDS011;3145;42.726;23.342;2023-09-30T09:02:20;12.43;;;7.55;;
6223;SDS011;3145;42.726;23.342;2023-09-30T09:04:48;36.85;;;12.60;;
6223;SDS011;3145;42.726;23.342;2023-09-30T09:07:16;12.30;;;7.93;;
6223;SDS011;3145;42.726;23.342;2023-09-30T09:09:43;17.98;;;8.40;;
6223;SDS011;3145;42.726;23.342;2023-09-30T09:12:30;15.18;;;7.97;;
6223;SDS011;3145;42.726;23.342;2023-09-30T09:14:57;12.02;;;6.82;;
6223;SDS011;3145;42.726;23.342;2023-09-30T09:17:23;12.10;;;7.53;;
6223;SDS011;3145;42.726;23.342;2023-09-30T09:20:00;14.00;;;7.10;;
6223;SDS011;3145;42.726;23.342;2023-09-30T09:22:37;13.48;;;7.97;;
6223;SDS011;3145;42.726;23.342;2023-09-30T09:25:04;10.55;;;7.35;;
6223;SDS011;3145;42.726;23.342;2023-09-30T09:27:33;10.32;;;7.95;;
6223;SDS011;3145;42.726;23.342;2023-09-30T09:30:13;16.50;;;7.60;;
6223;SDS011;3145;42.726;23.342;2023-09-30T09:32:51;10.60;;;7.18;;
6223;SDS011;3145;42.726;23.342;2023-09-30T09:35:20;12.05;;;6.28;;
6223;SDS011;3145;42.726;23.342;2023-09-30T09:37:57;9.57;;;5.70;;
6223;SDS011;3145;42.726;23.342;2023-09-30T09:40:25;10.15;;;5.63;;
6223;SDS011;3145;42.726;23.342;2023-09-30T09:42:53;8.35;;;5.78;;
6223;SDS011;3145;42.726;23.342;2023-09-30T09:45:21;9.65;;;5.57;;
6223;SDS011;3145;42.726;23.342;2023-09-30T09:47:49;7.10;;;5.18;;
6223;SDS011;3145;42.726;23.342;2023-09-30T09:50:18;9.30;;;5.30;;
6223;SDS011;3145;42.726;23.342;2023-09-30T09:52:48;11.68;;;5.72;;
6223;SDS011;3145;42.726;23.342;2023-09-30T09:55:16;7.57;;;5.25;;
6223;SDS011;3145;42.726;23.342;2023-09-30T09:57:43;8.70;;;5.40;;
6223;SDS011;3145;42.726;23.342;2023-09-30T10:00:12;7.72;;;5.15;;
6223;SDS011;3145;42.726;23.342;2023-09-30T10:02:41;8.43;;;5.65;;
6223;SDS011;3145;42.726;23.342;2023-09-30T10:05:08;9.52;;;5.28;;
6223;SDS011;3145;42.726;23.342;2023-09-30T10:07:38;8.98;;;4.88;;
6223;SDS011;3145;42.726;23.342;2023-09-30T10:10:11;12.77;;;4.80;;
6223;SDS011;3145;42.726;23.342;2023-09-30T10:12:41;4.35;;;3.95;;
6223;SDS011;3145;42.726;23.342;2023-09-30T10:18:08;4.38;;;4.00;;
6223;SDS011;3145;42.726;23.342;2023-09-30T10:20:37;13.00;;;4.90;;
6223;SDS011;3145;42.726;23.342;2023-09-30T10:23:21;4.45;;;4.05;;
6223;SDS011;3145;42.726;23.342;2023-09-30T10:25:53;11.43;;;3.90;;
6223;SDS011;3145;42.726;23.342;2023-09-30T10:28:33;5.03;;;3.35;;
6223;SDS011;3145;42.726;23.342;2023-09-30T10:31:07;6.05;;;3.63;;
6223;SDS011;3145;42.726;23.342;2023-09-30T10:33:36;6.97;;;4.43;;
6223;SDS011;3145;42.726;23.342;2023-09-30T10:36:02;6.45;;;4.25;;
6223;SDS011;3145;42.726;23.342;2023-09-30T10:38:36;12.35;;;4.40;;
6223;SDS011;3145;42.726;23.342;2023-09-30T10:41:06;7.88;;;5.20;;
6223;SDS011;3145;42.726;23.342;2023-09-30T10:43:33;8.57;;;6.63;;
6223;SDS011;3145;42.726;23.342;2023-09-30T10:46:01;6.97;;;5.40;;
6223;SDS011;3145;42.726;23.342;2023-09-30T10:48:36;6.65;;;4.60;;
6223;SDS011;3145;42.726;23.342;2023-09-30T10:51:11;8.93;;;4.88;;
6223;SDS011;3145;42.726;23.342;2023-09-30T10:53:44;15.60;;;4.95;;
6223;SDS011;3145;42.726;23.342;2023-09-30T10:56:14;7.88;;;5.22;;
6223;SDS011;3145;42.726;23.342;2023-09-30T10:58:42;11.18;;;5.03;;
6223;SDS011;3145;42.726;23.342;2023-09-30T11:01:10;6.25;;;4.35;;
6223;SDS011;3145;42.726;23.342;2023-09-30T11:03:38;4.60;;;4.03;;
6223;SDS011;3145;42.726;23.342;2023-09-30T11:06:05;6.43;;;4.40;;
6223;SDS011;3145;42.726;23.342;2023-09-30T11:08:32;5.28;;;4.35;;
6223;SDS011;3145;42.726;23.342;2023-09-30T11:11:01;4.55;;;4.15;;
6223;SDS011;3145;42.726;23.342;2023-09-30T11:13:33;8.68;;;5.38;;
6223;SDS011;3145;42.726;23.342;2023-09-30T11:16:01;7.57;;;3.80;;
6223;SDS011;3145;42.726;23.342;2023-09-30T11:18:30;4.97;;;3.17;;
6223;SDS011;3145;42.726;23.342;2023-09-30T11:21:04;17.65;;;3.95;;
6223;SDS011;3145;42.726;23.342;2023-09-30T11:23:31;4.93;;;4.38;;
6223;SDS011;3145;42.726;23.342;2023-09-30T11:25:58;12.10;;;5.32;;
6223;SDS011;3145;42.726;23.342;2023-09-30T11:28:25;12.43;;;5.20;;
6223;SDS011;3145;42.726;23.342;2023-09-30T11:30:54;8.10;;;5.13;;
6223;SDS011;3145;42.726;23.342;2023-09-30T11:33:22;6.47;;;5.15;;
6223;SDS011;3145;42.726;23.342;2023-09-30T11:35:56;10.88;;;5.30;;
6223;SDS011;3145;42.726;23.342;2023-09-30T11:38:24;7.18;;;5.07;;
6223;SDS011;3145;42.726;23.342;2023-09-30T11:41:00;7.25;;;4.82;;
6223;SDS011;3145;42.726;23.342;2023-09-30T11:43:29;9.52;;;4.35;;
6223;SDS011;3145;42.726;23.342;2023-09-30T11:46:07;5.90;;;4.38;;
6223;SDS011;3145;42.726;23.342;2023-09-30T11:48:34;11.52;;;5.78;;
6223;SDS011;3145;42.726;23.342;2023-09-30T11:51:02;6.18;;;4.10;;
6223;SDS011;3145;42.726;23.342;2023-09-30T11:53:29;14.60;;;4.85;;
6223;SDS011;3145;42.726;23.342;2023-09-30T11:55:56;8.48;;;4.82;;
6223;SDS011;3145;42.726;23.342;2023-09-30T12:00:55;13.88;;;5.38;;
6223;SDS011;3145;42.726;23.342;2023-09-30T12:03:26;7.45;;;4.07;;
6223;SDS011;3145;42.726;23.342;2023-09-30T12:05:53;11.27;;;5.25;;
6223;SDS011;3145;42.726;23.342;2023-09-30T12:08:20;4.43;;;4.10;;
6223;SDS011;3145;42.726;23.342;2023-09-30T12:10:47;7.55;;;4.53;;
6223;SDS011;3145;42.726;23.342;2023-09-30T12:13:14;4.50;;;4.00;;
6223;SDS011;3145;42.726;23.342;2023-09-30T12:15:42;6.32;;;4.03;;
6223;SDS011;3145;42.726;23.342;2023-09-30T12:18:09;6.45;;;4.55;;
6223;SDS011;3145;42.726;23.342;2023-09-30T12:20:40;7.90;;;7.10;;
6223;SDS011;3145;42.726;23.342;2023-09-30T12:23:08;13.32;;;6.90;;
6223;SDS011;3145;42.726;23.342;2023-09-30T12:25:34;5.78;;;4.55;;
6223;SDS011;3145;42.726;23.342;2023-09-30T12:28:02;9.90;;;5.68;;
6223;SDS011;3145;42.726;23.342;2023-09-30T12:30:30;4.22;;;3.25;;
6223;SDS011;3145;42.726;23.342;2023-09-30T12:32:57;15.80;;;5.03;;
6223;SDS011;3145;42.726;23.342;2023-09-30T12:35:24;10.02;;;6.10;;
6223;SDS011;3145;42.726;23.342;2023-09-30T12:37:52;8.77;;;5.40;;
6223;SDS011;3145;42.726;23.342;2023-09-30T12:40:19;6.20;;;4.05;;
6223;SDS011;3145;42.726;23.342;2023-09-30T12:42:47;8.23;;;4.80;;
6223;SDS011;3145;42.726;23.342;2023-09-30T12:45:14;10.05;;;4.90;;
6223;SDS011;3145;42.726;23.342;2023-09-30T12:47:42;10.02;;;4.88;;
6223;SDS011;3145;42.726;23.342;2023-09-30T12:50:09;7.22;;;5.03;;
6223;SDS011;3145;42.726;23.342;2023-09-30T12:52:35;6.07;;;5.30;;
6223;SDS011;3145;42.726;23.342;2023-09-30T12:55:05;10.77;;;5.30;;
6223;SDS011;3145;42.726;23.342;2023-09-30T12:57:32;10.63;;;5.53;;
6223;SDS011;3145;42.726;23.342;2023-09-30T12:59:59;6.80;;;6.13;;
6223;SDS011;3145;42.726;23.342;2023-09-30T13:02:26;11.77;;;8.75;;
6223;SDS011;3145;42.726;23.342;2023-09-30T13:04:52;15.18;;;8.50;;
6223;SDS011;3145;42.726;23.342;2023-09-30T13:07:19;11.25;;;6.90;;
6223;SDS011;3145;42.726;23.342;2023-09-30T13:09:46;9.38;;;5.57;;
6223;SDS011;3145;42.726;23.342;2023-09-30T13:12:14;8.18;;;5.20;;
6223;SDS011;3145;42.726;23.342;2023-09-30T13:14:41;6.70;;;5.88;;
6223;SDS011;3145;42.726;23.342;2023-09-30T13:17:08;6.05;;;5.32;;
6223;SDS011;3145;42.726;23.342;2023-09-30T13:19:37;14.05;;;7.07;;
6223;SDS011;3145;42.726;23.342;2023-09-30T13:22:04;9.95;;;5.75;;
6223;SDS011;3145;42.726;23.342;2023-09-30T13:24:32;6.47;;;5.75;;
6223;SDS011;3145;42.726;23.342;2023-09-30T13:27:02;10.25;;;6.50;;
6223;SDS011;3145;42.726;23.342;2023-09-30T13:29:30;6.97;;;5.55;;
6223;SDS011;3145;42.726;23.342;2023-09-30T13:31:57;8.52;;;4.35;;
6223;SDS011;3145;42.726;23.342;2023-09-30T13:34:24;11.77;;;5.20;;
6223;SDS011;3145;42.726;23.342;2023-09-30T13:36:50;6.60;;;5.15;;
6223;SDS011;3145;42.726;23.342;2023-09-30T13:39:17;6.47;;;4.65;;
6223;SDS011;3145;42.726;23.342;2023-09-30T13:41:44;6.97;;;5.63;;
6223;SDS011;3145;42.726;23.342;2023-09-30T13:44:12;12.82;;;5.35;;
6223;SDS011;3145;42.726;23.342;2023-09-30T13:46:40;6.82;;;5.68;;
6223;SDS011;3145;42.726;23.342;2023-09-30T13:49:07;11.25;;;5.20;;
6223;SDS011;3145;42.726;23.342;2023-09-30T13:51:34;5.53;;;5.07;;
6223;SDS011;3145;42.726;23.342;2023-09-30T13:54:01;13.23;;;7.85;;
6223;SDS011;3145;42.726;23.342;2023-09-30T13:56:28;6.45;;;5.80;;
6223;SDS011;3145;42.726;23.342;2023-09-30T13:58:55;7.25;;;5.15;;
6223;SDS011;3145;42.726;23.342;2023-09-30T14:01:23;10.70;;;4.93;;
6223;SDS011;3145;42.726;23.342;2023-09-30T14:03:51;5.97;;;5.07;;
6223;SDS011;3145;42.726;23.342;2023-09-30T14:06:20;12.82;;;4.97;;
6223;SDS011;3145;42.726;23.342;2023-09-30T14:08:47;5.38;;;4.88;;
6223;SDS011;3145;42.726;23.342;2023-09-30T14:11:14;4.80;;;4.32;;
6223;SDS011;3145;42.726;23.342;2023-09-30T14:13:41;9.18;;;5.18;;
6223;SDS011;3145;42.726;23.342;2023-09-30T14:16:08;10.10;;;5.30;;
6223;SDS011;3145;42.726;23.342;2023-09-30T14:18:35;5.78;;;4.25;;
6223;SDS011;3145;42.726;23.342;2023-09-30T14:21:05;7.13;;;5.32;;
6223;SDS011;3145;42.726;23.342;2023-09-30T14:23:32;17.52;;;5.50;;
6223;SDS011;3145;42.726;23.342;2023-09-30T14:25:59;11.18;;;4.93;;
6223;SDS011;3145;42.726;23.342;2023-09-30T14:28:29;7.88;;;6.45;;
6223;SDS011;3145;42.726;23.342;2023-09-30T14:30:57;9.50;;;5.43;;
6223;SDS011;3145;42.726;23.342;2023-09-30T14:33:23;9.82;;;5.13;;
6223;SDS011;3145;42.726;23.342;2023-09-30T14:35:50;6.05;;;5.18;;
6223;SDS011;3145;42.726;23.342;2023-09-30T14:38:19;8.85;;;4.18;;
6223;SDS011;3145;42.726;23.342;2023-09-30T14:40:46;8.48;;;5.40;;
6223;SDS011;3145;42.726;23.342;2023-09-30T14:43:12;13.70;;;6.40;;
6223;SDS011;3145;42.726;23.342;2023-09-30T14:45:39;10.82;;;6.20;;
6223;SDS011;3145;42.726;23.342;2023-09-30T14:48:06;9.13;;;5.15;;
6223;SDS011;3145;42.726;23.342;2023-09-30T14:50:34;8.68;;;5.70;;
6223;SDS011;3145;42.726;23.342;2023-09-30T14:53:01;5.85;;;5.35;;
6223;SDS011;3145;42.726;23.342;2023-09-30T14:55:32;7.03;;;5.32;;
6223;SDS011;3145;42.726;23.342;2023-09-30T14:57:58;12.25;;;5.78;;
6223;SDS011;3145;42.726;23.342;2023-09-30T15:00:25;8.68;;;5.70;;
6223;SDS011;3145;42.726;23.342;2023-09-30T15:02:52;11.27;;;5.97;;